createdAt,value
2017-01-02T00:00:16.233Z,19.91
2017-01-02T00:00:41.843Z,19.91
2017-01-02T00:01:07.454Z,19.98
2017-01-02T00:01:33.013Z,19.98
2017-01-02T00:01:58.591Z,19.95
2017-01-02T00:02:24.146Z,19.98
2017-01-02T00:02:49.772Z,19.93
2017-01-02T00:03:15.306Z,19.98
2017-01-02T00:03:40.872Z,19.95
2017-01-02T00:04:06.439Z,19.98
2017-01-02T00:04:32.012Z,19.91
2017-01-02T00:04:57.665Z,19.93
2017-01-02T00:05:23.237Z,19.9
2017-01-02T00:05:48.796Z,19.95
2017-01-02T00:06:14.370Z,19.9
2017-01-02T00:06:39.941Z,19.95
2017-01-02T00:07:05.568Z,19.94
2017-01-02T00:07:31.154Z,19.93
2017-01-02T00:07:56.732Z,19.98
2017-01-02T00:08:22.300Z,20
2017-01-02T00:08:47.858Z,19.95
2017-01-02T00:09:13.421Z,19.98
2017-01-02T00:09:39.074Z,19.97
2017-01-02T00:10:04.651Z,19.97
2017-01-02T00:10:30.221Z,19.95
2017-01-02T00:10:55.866Z,19.93
2017-01-02T00:11:21.434Z,19.91
2017-01-02T00:11:47.005Z,19.95
2017-01-02T00:12:12.583Z,19.9
2017-01-02T00:12:38.141Z,19.91
2017-01-02T00:13:03.700Z,19.95
2017-01-02T00:13:29.259Z,19.94
2017-01-02T00:13:54.860Z,19.97
2017-01-02T00:14:20.414Z,19.95
2017-01-02T00:14:46.042Z,20
2017-01-02T00:15:11.608Z,19.98
2017-01-02T00:15:37.172Z,19.88
2017-01-02T00:16:02.754Z,19.95
2017-01-02T00:16:28.324Z,19.91
2017-01-02T00:16:53.883Z,19.91
2017-01-02T00:17:19.455Z,19.98
2017-01-02T00:17:45.052Z,19.97
2017-01-02T00:18:10.632Z,19.97
2017-01-02T00:18:36.219Z,19.91
2017-01-02T00:19:01.795Z,19.94
2017-01-02T00:19:27.368Z,19.88
2017-01-02T00:19:52.920Z,19.87
2017-01-02T00:20:18.563Z,19.93
2017-01-02T00:20:44.113Z,19.91
2017-01-02T00:21:09.674Z,19.91
2017-01-02T00:21:35.319Z,19.9
2017-01-02T00:22:00.899Z,19.94
2017-01-02T00:22:26.493Z,19.9
2017-01-02T00:22:52.108Z,19.93
2017-01-02T00:23:17.732Z,19.93
2017-01-02T00:23:43.293Z,19.91
2017-01-02T00:24:08.963Z,19.88
2017-01-02T00:24:34.570Z,19.86
2017-01-02T00:25:00.123Z,19.94
2017-01-02T00:25:25.681Z,19.93
2017-01-02T00:25:51.394Z,19.83
2017-01-02T00:26:16.958Z,19.91
2017-01-02T00:26:42.544Z,19.93
2017-01-02T00:27:08.179Z,19.9
2017-01-02T00:27:33.743Z,19.91
2017-01-02T00:27:59.309Z,19.88
2017-01-02T00:28:24.866Z,19.91
2017-01-02T00:28:50.605Z,19.88
2017-01-02T00:29:16.198Z,19.9
2017-01-02T00:29:41.794Z,19.87
2017-01-02T00:30:07.350Z,19.91
2017-01-02T00:30:32.915Z,19.93
2017-01-02T00:30:58.487Z,19.88
2017-01-02T00:31:24.150Z,19.91
2017-01-02T00:31:49.853Z,19.91
2017-01-02T00:32:15.421Z,19.88
2017-01-02T00:32:41.015Z,19.93
2017-01-02T00:33:06.609Z,19.9
2017-01-02T00:33:32.190Z,19.93
2017-01-02T00:33:57.784Z,19.88
2017-01-02T00:34:23.416Z,19.91
2017-01-02T00:34:48.976Z,19.91
2017-01-02T00:35:14.562Z,19.9
2017-01-02T00:35:40.227Z,19.91
2017-01-02T00:36:05.805Z,19.93
2017-01-02T00:36:31.350Z,19.93
2017-01-02T00:36:57.000Z,19.91
2017-01-02T00:37:22.630Z,19.93
2017-01-02T00:37:48.181Z,19.88
2017-01-02T00:38:13.740Z,19.91
2017-01-02T00:38:39.302Z,19.93
2017-01-02T00:39:04.875Z,19.93
2017-01-02T00:39:30.481Z,19.88
2017-01-02T00:39:56.047Z,19.93
2017-01-02T00:40:21.631Z,19.93
2017-01-02T00:40:47.216Z,19.9
2017-01-02T00:41:12.782Z,19.87
2017-01-02T00:41:38.377Z,19.88
2017-01-02T00:42:04.067Z,19.9
2017-01-02T00:42:29.611Z,19.91
2017-01-02T00:42:55.169Z,19.93
2017-01-02T00:43:20.731Z,19.88
2017-01-02T00:43:46.401Z,19.86
2017-01-02T00:44:11.959Z,19.95
2017-01-02T00:44:37.582Z,19.91
2017-01-02T00:45:03.166Z,19.91
2017-01-02T00:45:28.734Z,19.93
2017-01-02T00:45:54.299Z,19.88
2017-01-02T00:46:19.852Z,19.94
2017-01-02T00:46:45.413Z,19.93
2017-01-02T00:47:10.984Z,19.91
2017-01-02T00:47:36.589Z,19.9
2017-01-02T00:48:02.176Z,19.94
2017-01-02T00:48:27.740Z,19.94
2017-01-02T00:48:53.364Z,19.93
2017-01-02T00:49:18.934Z,19.94
2017-01-02T00:49:44.503Z,19.93
2017-01-02T00:50:10.096Z,19.87
2017-01-02T00:50:35.695Z,19.87
2017-01-02T00:51:01.270Z,19.91
2017-01-02T00:51:26.880Z,19.9
2017-01-02T00:51:52.440Z,19.94
2017-01-02T00:52:18.001Z,19.9
2017-01-02T00:52:43.577Z,19.9
2017-01-02T00:53:09.123Z,19.83
2017-01-02T00:53:34.687Z,19.88
2017-01-02T00:54:00.263Z,19.91
2017-01-02T00:54:25.816Z,19.91
2017-01-02T00:54:51.384Z,19.93
2017-01-02T00:55:16.944Z,19.93
2017-01-02T00:55:42.500Z,19.93
2017-01-02T00:56:36.012Z,19.91
2017-01-02T00:57:01.579Z,19.94
2017-01-02T00:57:27.139Z,19.91
2017-01-02T00:57:52.707Z,19.93
2017-01-02T00:58:18.318Z,19.93
2017-01-02T00:58:43.871Z,19.93
2017-01-02T00:59:09.442Z,19.86
2017-01-02T00:59:35.020Z,19.93
2017-01-02T01:00:00.633Z,19.88
2017-01-02T01:00:26.201Z,19.91
2017-01-02T01:00:51.758Z,19.9
2017-01-02T01:01:17.343Z,19.93
2017-01-02T01:01:42.908Z,19.9
2017-01-02T01:02:08.483Z,19.95
2017-01-02T01:02:34.033Z,19.79
2017-01-02T01:02:59.621Z,19.79
2017-01-02T01:03:25.171Z,19.91
2017-01-02T01:03:50.742Z,19.93
2017-01-02T01:04:16.320Z,19.88
2017-01-02T01:04:41.878Z,19.83
2017-01-02T01:05:07.441Z,19.91
2017-01-02T01:05:33.034Z,19.9
2017-01-02T01:05:58.609Z,19.94
2017-01-02T01:06:24.187Z,19.88
2017-01-02T01:06:49.798Z,19.79
2017-01-02T01:07:15.386Z,19.84
2017-01-02T01:07:40.939Z,19.86
2017-01-02T01:08:06.519Z,19.91
2017-01-02T01:08:32.095Z,19.95
2017-01-02T01:08:57.663Z,19.88
2017-01-02T01:09:23.263Z,19.9
2017-01-02T01:09:48.812Z,19.95
2017-01-02T01:10:14.348Z,19.9
2017-01-02T01:10:39.991Z,19.94
2017-01-02T01:11:05.541Z,19.9
2017-01-02T01:11:31.129Z,19.8
2017-01-02T01:11:56.722Z,19.91
2017-01-02T01:12:22.327Z,19.79
2017-01-02T01:12:47.902Z,19.91
2017-01-02T01:13:13.474Z,19.88
2017-01-02T01:13:39.059Z,19.83
2017-01-02T01:14:04.614Z,19.79
2017-01-02T01:14:30.212Z,19.9
2017-01-02T01:14:55.777Z,19.79
2017-01-02T01:15:21.329Z,19.9
2017-01-02T01:15:46.892Z,19.84
2017-01-02T01:16:12.486Z,19.9
2017-01-02T01:16:38.041Z,19.91
2017-01-02T01:17:03.619Z,19.79
2017-01-02T01:17:29.207Z,19.86
2017-01-02T01:17:54.783Z,19.8
2017-01-02T01:18:20.409Z,19.8
2017-01-02T01:18:45.985Z,19.91
2017-01-02T01:19:11.546Z,19.91
2017-01-02T01:19:37.125Z,19.91
2017-01-02T01:20:02.801Z,19.78
2017-01-02T01:20:28.348Z,19.88
2017-01-02T01:20:53.911Z,19.83
2017-01-02T01:21:19.559Z,19.88
2017-01-02T01:21:45.116Z,19.87
2017-01-02T01:22:10.785Z,19.91
2017-01-02T01:22:36.342Z,19.95
2017-01-02T01:23:01.938Z,19.9
2017-01-02T01:23:27.645Z,19.79
2017-01-02T01:23:53.225Z,19.88
2017-01-02T01:24:18.786Z,19.88
2017-01-02T01:24:44.351Z,19.84
2017-01-02T01:25:10.013Z,19.84
2017-01-02T01:25:35.614Z,19.83
2017-01-02T01:26:01.172Z,19.8
2017-01-02T01:26:26.756Z,19.87
2017-01-02T01:26:52.316Z,19.83
2017-01-02T01:27:17.899Z,19.84
2017-01-02T01:27:43.457Z,19.9
2017-01-02T01:28:09.036Z,19.78
2017-01-02T01:28:34.591Z,19.87
2017-01-02T01:29:00.195Z,19.75
2017-01-02T01:29:25.754Z,19.88
2017-01-02T01:29:51.330Z,19.84
2017-01-02T01:30:16.923Z,19.79
2017-01-02T01:30:42.585Z,19.8
2017-01-02T01:31:08.161Z,19.84
2017-01-02T01:31:33.733Z,19.8
2017-01-02T01:31:59.306Z,19.9
2017-01-02T01:32:24.910Z,19.75
2017-01-02T01:32:50.461Z,19.83
2017-01-02T01:33:16.046Z,19.84
2017-01-02T01:33:41.649Z,19.91
2017-01-02T01:34:07.214Z,19.8
2017-01-02T01:34:32.770Z,19.8
2017-01-02T01:34:58.335Z,19.8
2017-01-02T01:35:23.877Z,19.79
2017-01-02T01:35:49.511Z,19.87
2017-01-02T01:36:15.078Z,19.76
2017-01-02T01:36:40.647Z,19.83
2017-01-02T01:37:06.221Z,19.86
2017-01-02T01:37:31.802Z,19.8
2017-01-02T01:37:57.362Z,19.83
2017-01-02T01:38:22.935Z,19.83
2017-01-02T01:38:48.498Z,19.86
2017-01-02T01:39:14.137Z,19.8
2017-01-02T01:39:39.699Z,19.76
2017-01-02T01:40:05.261Z,19.83
2017-01-02T01:40:30.837Z,19.83
2017-01-02T01:40:56.403Z,19.87
2017-01-02T01:41:21.968Z,19.9
2017-01-02T01:41:47.533Z,19.83
2017-01-02T01:42:13.112Z,19.83
2017-01-02T01:42:38.682Z,19.84
2017-01-02T01:43:04.247Z,19.79
2017-01-02T01:43:29.828Z,19.79
2017-01-02T01:43:55.412Z,19.78
2017-01-02T01:44:21.009Z,19.83
2017-01-02T01:44:46.690Z,19.78
2017-01-02T01:45:12.266Z,19.83
2017-01-02T01:45:37.821Z,19.88
2017-01-02T01:46:03.391Z,19.8
2017-01-02T01:46:28.939Z,19.79
2017-01-02T01:46:54.506Z,19.79
2017-01-02T01:47:20.072Z,19.76
2017-01-02T01:47:45.666Z,19.79
2017-01-02T01:48:54.537Z,19.87
2017-01-02T01:49:20.289Z,19.8
2017-01-02T01:49:45.863Z,19.78
2017-01-02T01:50:11.412Z,19.84
2017-01-02T01:50:37.022Z,19.78
2017-01-02T01:51:02.601Z,19.79
2017-01-02T01:51:28.157Z,19.79
2017-01-02T01:51:53.802Z,19.88
2017-01-02T01:52:19.399Z,19.79
2017-01-02T01:52:44.961Z,19.8
2017-01-02T01:53:10.524Z,19.86
2017-01-02T01:53:36.098Z,19.83
2017-01-02T01:54:01.654Z,19.84
2017-01-02T01:54:27.254Z,19.8
2017-01-02T01:54:52.839Z,19.86
2017-01-02T01:55:18.423Z,19.83
2017-01-02T01:55:44.078Z,19.79
2017-01-02T01:56:09.639Z,19.8
2017-01-02T01:56:35.194Z,19.9
2017-01-02T01:57:00.767Z,19.8
2017-01-02T01:57:26.423Z,19.84
2017-01-02T01:57:51.994Z,19.83
2017-01-02T01:58:17.539Z,19.86
2017-01-02T01:58:43.130Z,19.83
2017-01-02T01:59:08.734Z,19.78
2017-01-02T01:59:34.289Z,19.83
2017-01-02T01:59:59.857Z,19.9
2017-01-02T02:00:25.409Z,19.78
2017-01-02T02:00:50.977Z,19.8
2017-01-02T02:01:16.535Z,19.86
2017-01-02T02:01:42.094Z,19.84
2017-01-02T02:02:07.654Z,19.86
2017-01-02T02:02:33.211Z,19.9
2017-01-02T02:02:58.793Z,19.76
2017-01-02T02:03:24.353Z,19.75
2017-01-02T02:03:49.900Z,19.83
2017-01-02T02:04:15.462Z,19.79
2017-01-02T02:04:41.025Z,19.83
2017-01-02T02:05:06.590Z,19.78
2017-01-02T02:05:32.145Z,19.88
2017-01-02T02:05:57.728Z,19.86
2017-01-02T02:06:23.317Z,19.87
2017-01-02T02:06:48.996Z,19.8
2017-01-02T02:07:14.588Z,19.91
2017-01-02T02:07:40.150Z,19.78
2017-01-02T02:08:05.708Z,19.9
2017-01-02T02:08:31.267Z,19.84
2017-01-02T02:08:56.864Z,19.87
2017-01-02T02:09:22.427Z,19.83
2017-01-02T02:09:47.987Z,19.84
2017-01-02T02:10:13.558Z,19.84
2017-01-02T02:10:39.123Z,19.8
2017-01-02T02:11:04.690Z,19.79
2017-01-02T02:12:08.359Z,19.83
2017-01-02T02:12:34.007Z,19.86
2017-01-02T02:12:59.598Z,19.83
2017-01-02T02:13:25.163Z,19.84
2017-01-02T02:13:50.749Z,19.87
2017-01-02T02:14:16.337Z,19.8
2017-01-02T02:14:41.942Z,19.87
2017-01-02T02:15:07.496Z,19.79
2017-01-02T02:15:33.075Z,19.84
2017-01-02T02:15:58.632Z,19.8
2017-01-02T02:16:24.187Z,19.9
2017-01-02T02:16:49.749Z,19.79
2017-01-02T02:17:15.323Z,19.78
2017-01-02T02:17:40.875Z,19.86
2017-01-02T02:18:06.603Z,19.87
2017-01-02T02:18:32.181Z,19.78
2017-01-02T02:18:57.753Z,19.9
2017-01-02T02:19:23.329Z,19.79
2017-01-02T02:19:48.902Z,19.86
2017-01-02T02:20:14.462Z,19.87
2017-01-02T02:20:40.197Z,19.78
2017-01-02T02:21:05.745Z,19.86
2017-01-02T02:21:31.299Z,19.79
2017-01-02T02:21:56.849Z,19.76
2017-01-02T02:22:22.603Z,19.87
2017-01-02T02:22:48.169Z,19.75
2017-01-02T02:23:13.720Z,19.73
2017-01-02T02:23:39.402Z,19.78
2017-01-02T02:24:04.990Z,19.78
2017-01-02T02:24:30.571Z,19.79
2017-01-02T02:24:56.117Z,19.8
2017-01-02T02:25:21.693Z,19.79
2017-01-02T02:25:47.258Z,19.9
2017-01-02T02:26:12.858Z,19.83
2017-01-02T02:26:38.588Z,19.87
2017-01-02T02:27:04.159Z,19.83
2017-01-02T02:27:29.725Z,19.86
2017-01-02T02:27:55.393Z,19.87
2017-01-02T02:28:20.952Z,19.75
2017-01-02T02:28:46.499Z,19.87
2017-01-02T02:29:12.203Z,19.79
2017-01-02T02:29:37.784Z,19.76
2017-01-02T02:30:03.360Z,19.79
2017-01-02T02:30:29.018Z,19.83
2017-01-02T02:30:54.595Z,19.83
2017-01-02T02:31:20.181Z,19.73
2017-01-02T02:31:45.759Z,19.8
2017-01-02T02:32:11.324Z,19.79
2017-01-02T02:32:36.901Z,19.76
2017-01-02T02:33:02.458Z,19.7
2017-01-02T02:33:28.013Z,19.83
2017-01-02T02:33:53.581Z,19.79
2017-01-02T02:34:19.195Z,19.83
2017-01-02T02:34:44.816Z,19.79
2017-01-02T02:35:10.371Z,19.84
2017-01-02T02:35:35.917Z,19.8
2017-01-02T02:36:24.360Z,19.78
2017-01-02T02:36:49.920Z,19.75
2017-01-02T02:37:15.471Z,19.79
2017-01-02T02:37:41.016Z,19.75
2017-01-02T02:38:06.672Z,19.78
2017-01-02T02:38:32.232Z,19.79
2017-01-02T02:38:57.799Z,19.8
2017-01-02T02:39:23.368Z,19.83
2017-01-02T02:39:48.915Z,19.83
2017-01-02T02:40:14.474Z,19.84
2017-01-02T02:40:40.044Z,19.76
2017-01-02T02:41:05.622Z,19.79
2017-01-02T02:41:31.274Z,19.73
2017-01-02T02:41:56.834Z,19.79
2017-01-02T02:42:22.394Z,19.68
2017-01-02T02:42:47.957Z,19.86
2017-01-02T02:43:13.652Z,19.79
2017-01-02T02:43:39.217Z,19.86
2017-01-02T02:44:04.773Z,19.84
2017-01-02T02:44:30.330Z,19.83
2017-01-02T02:44:55.877Z,19.75
2017-01-02T02:45:21.485Z,19.75
2017-01-02T02:45:47.032Z,19.8
2017-01-02T02:46:12.615Z,19.79
2017-01-02T02:46:38.212Z,19.79
2017-01-02T02:47:03.778Z,19.76
2017-01-02T02:47:29.339Z,19.8
2017-01-02T02:47:54.911Z,19.83
2017-01-02T02:48:20.496Z,19.76
2017-01-02T02:48:46.050Z,19.79
2017-01-02T02:49:11.642Z,19.79
2017-01-02T02:49:37.208Z,19.76
2017-01-02T02:50:02.762Z,19.86
2017-01-02T02:50:28.444Z,19.79
2017-01-02T02:50:53.993Z,19.79
2017-01-02T02:51:19.574Z,19.79
2017-01-02T02:51:45.131Z,19.76
2017-01-02T02:52:10.751Z,19.83
2017-01-02T02:52:36.314Z,19.76
2017-01-02T02:53:01.954Z,19.78
2017-01-02T02:53:27.584Z,19.75
2017-01-02T02:53:53.146Z,19.75
2017-01-02T02:54:18.725Z,19.76
2017-01-02T02:54:44.293Z,19.8
2017-01-02T02:55:09.893Z,19.75
2017-01-02T02:55:35.447Z,19.79
2017-01-02T02:56:01.053Z,19.79
2017-01-02T02:56:26.620Z,19.79
2017-01-02T02:56:52.178Z,19.75
2017-01-02T02:57:17.745Z,19.83
2017-01-02T02:57:43.291Z,19.8
2017-01-02T02:58:08.986Z,19.79
2017-01-02T02:58:34.546Z,19.8
2017-01-02T02:59:00.121Z,19.73
2017-01-02T02:59:25.770Z,19.78
2017-01-02T02:59:51.397Z,19.78
2017-01-02T03:00:16.973Z,19.78
2017-01-02T03:00:42.533Z,19.78
2017-01-02T03:01:08.111Z,19.78
2017-01-02T03:01:33.660Z,19.84
2017-01-02T03:01:59.239Z,19.76
2017-01-02T03:02:24.832Z,19.78
2017-01-02T03:02:50.387Z,19.8
2017-01-02T03:03:16.044Z,19.8
2017-01-02T03:03:41.601Z,19.75
2017-01-02T03:04:07.169Z,19.73
2017-01-02T03:04:32.724Z,19.75
2017-01-02T03:04:58.418Z,19.8
2017-01-02T03:05:23.997Z,19.75
2017-01-02T03:05:49.543Z,19.73
2017-01-02T03:06:15.110Z,19.8
2017-01-02T03:06:40.680Z,19.73
2017-01-02T03:07:06.225Z,19.72
2017-01-02T03:07:31.793Z,19.79
2017-01-02T03:07:57.338Z,19.75
2017-01-02T03:08:22.896Z,19.66
2017-01-02T03:08:48.456Z,19.78
2017-01-02T03:09:14.025Z,19.73
2017-01-02T03:09:39.581Z,19.72
2017-01-02T03:10:05.204Z,19.69
2017-01-02T03:10:30.780Z,19.76
2017-01-02T03:10:56.344Z,19.78
2017-01-02T03:11:21.903Z,19.83
2017-01-02T03:11:47.470Z,19.78
2017-01-02T03:12:13.068Z,19.75
2017-01-02T03:12:38.630Z,19.76
2017-01-02T03:13:04.204Z,19.79
2017-01-02T03:13:29.769Z,19.72
2017-01-02T03:13:55.335Z,19.76
2017-01-02T03:14:20.889Z,19.63
2017-01-02T03:14:46.452Z,19.73
2017-01-02T03:15:11.995Z,19.73
2017-01-02T03:15:37.587Z,19.83
2017-01-02T03:16:03.233Z,19.78
2017-01-02T03:16:28.801Z,19.78
2017-01-02T03:16:54.350Z,19.8
2017-01-02T03:17:19.910Z,19.65
2017-01-02T03:17:45.523Z,19.75
2017-01-02T03:18:11.065Z,19.7
2017-01-02T03:18:36.633Z,19.78
2017-01-02T03:19:02.196Z,19.76
2017-01-02T03:19:27.734Z,19.79
2017-01-02T03:19:53.324Z,19.73
2017-01-02T03:20:19.004Z,19.73
2017-01-02T03:20:44.561Z,19.68
2017-01-02T03:21:10.239Z,19.7
2017-01-02T03:21:35.809Z,19.79
2017-01-02T03:22:01.361Z,19.68
2017-01-02T03:22:27.022Z,19.8
2017-01-02T03:22:52.591Z,19.78
2017-01-02T03:23:18.159Z,19.76
2017-01-02T03:23:43.707Z,19.68
2017-01-02T03:24:09.271Z,19.79
2017-01-02T03:24:34.835Z,19.73
2017-01-02T03:25:00.418Z,19.75
2017-01-02T03:25:25.999Z,19.68
2017-01-02T03:25:51.575Z,19.63
2017-01-02T03:26:17.188Z,19.68
2017-01-02T03:26:42.851Z,19.78
2017-01-02T03:27:08.409Z,19.73
2017-01-02T03:27:34.038Z,19.73
2017-01-02T03:27:59.605Z,19.78
2017-01-02T03:28:25.167Z,19.76
2017-01-02T03:28:50.731Z,19.78
2017-01-02T03:29:16.454Z,19.65
2017-01-02T03:29:42.033Z,19.69
2017-01-02T03:30:07.598Z,19.76
2017-01-02T03:30:33.168Z,19.69
2017-01-02T03:30:58.823Z,19.66
2017-01-02T03:31:24.393Z,19.73
2017-01-02T03:31:50.039Z,19.69
2017-01-02T03:32:15.631Z,19.65
2017-01-02T03:32:41.182Z,19.68
2017-01-02T03:33:06.746Z,19.83
2017-01-02T03:33:32.300Z,19.76
2017-01-02T03:33:57.914Z,19.72
2017-01-02T03:34:23.486Z,19.7
2017-01-02T03:34:49.051Z,19.68
2017-01-02T03:35:14.622Z,19.78
2017-01-02T03:35:40.249Z,19.73
2017-01-02T03:36:05.831Z,19.78
2017-01-02T03:36:31.388Z,19.65
2017-01-02T03:36:56.934Z,19.76
2017-01-02T03:37:22.508Z,19.76
2017-01-02T03:37:48.059Z,19.83
2017-01-02T03:38:13.654Z,19.65
2017-01-02T03:38:39.222Z,19.68
2017-01-02T03:39:04.804Z,19.65
2017-01-02T03:39:30.374Z,19.69
2017-01-02T03:39:55.928Z,19.65
2017-01-02T03:40:21.483Z,19.69
2017-01-02T03:40:47.113Z,19.68
2017-01-02T03:41:12.799Z,19.61
2017-01-02T03:41:38.361Z,19.78
2017-01-02T03:42:03.936Z,19.68
2017-01-02T03:42:29.523Z,19.65
2017-01-02T03:42:55.084Z,19.76
2017-01-02T03:43:20.673Z,19.75
2017-01-02T03:43:46.249Z,19.72
2017-01-02T03:44:11.823Z,19.76
2017-01-02T03:44:37.390Z,19.65
2017-01-02T03:45:02.967Z,19.76
2017-01-02T03:45:28.548Z,19.78
2017-01-02T03:45:54.089Z,19.68
2017-01-02T03:46:19.654Z,19.76
2017-01-02T03:46:45.212Z,19.65
2017-01-02T03:47:10.782Z,19.75
2017-01-02T03:47:36.334Z,19.68
2017-01-02T03:48:01.889Z,19.76
2017-01-02T03:48:27.486Z,19.68
2017-01-02T03:48:53.047Z,19.79
2017-01-02T03:49:18.591Z,19.72
2017-01-02T03:49:44.167Z,19.79
2017-01-02T03:50:09.745Z,19.76
2017-01-02T03:50:35.324Z,19.78
2017-01-02T03:51:00.894Z,19.63
2017-01-02T03:51:26.459Z,19.72
2017-01-02T03:51:52.133Z,19.63
2017-01-02T03:52:17.775Z,19.78
2017-01-02T03:52:43.363Z,19.63
2017-01-02T03:53:08.919Z,19.72
2017-01-02T03:53:34.539Z,19.73
2017-01-02T03:54:00.126Z,19.7
2017-01-02T03:54:25.671Z,19.68
2017-01-02T03:54:51.226Z,19.75
2017-01-02T03:55:16.932Z,19.63
2017-01-02T03:55:42.482Z,19.7
2017-01-02T03:56:08.143Z,19.68
2017-01-02T03:56:33.697Z,19.66
2017-01-02T03:56:59.260Z,19.65
2017-01-02T03:57:24.887Z,19.72
2017-01-02T03:57:50.449Z,19.7
2017-01-02T03:58:16.003Z,19.66
2017-01-02T03:58:41.564Z,19.7
2017-01-02T03:59:07.138Z,19.7
2017-01-02T03:59:32.702Z,19.7
2017-01-02T03:59:58.301Z,19.75
2017-01-02T04:00:23.858Z,19.66
2017-01-02T04:00:49.418Z,19.66
2017-01-02T04:01:15.082Z,19.63
2017-01-02T04:01:40.703Z,19.72
2017-01-02T04:02:06.255Z,19.73
2017-01-02T04:02:31.809Z,19.68
2017-01-02T04:02:57.402Z,19.72
2017-01-02T04:03:22.975Z,19.68
2017-01-02T04:03:48.530Z,19.73
2017-01-02T04:04:14.100Z,19.7
2017-01-02T04:04:39.653Z,19.68
2017-01-02T04:05:05.303Z,19.7
2017-01-02T04:05:30.871Z,19.76
2017-01-02T04:05:56.427Z,19.78
2017-01-02T04:06:22.082Z,19.7
2017-01-02T04:06:47.701Z,19.7
2017-01-02T04:07:13.272Z,19.7
2017-01-02T04:07:38.828Z,19.66
2017-01-02T04:08:04.538Z,19.69
2017-01-02T04:08:30.111Z,19.68
2017-01-02T04:08:55.685Z,19.72
2017-01-02T04:09:21.322Z,19.72
2017-01-02T04:09:46.887Z,19.69
2017-01-02T04:10:12.452Z,19.65
2017-01-02T04:10:38.107Z,19.69
2017-01-02T04:11:03.701Z,19.61
2017-01-02T04:11:29.282Z,19.73
2017-01-02T04:11:54.853Z,19.7
2017-01-02T04:12:20.469Z,19.69
2017-01-02T04:12:46.033Z,19.68
2017-01-02T04:13:11.594Z,19.68
2017-01-02T04:13:37.191Z,19.7
2017-01-02T04:14:02.842Z,19.69
2017-01-02T04:14:28.404Z,19.69
2017-01-02T04:14:54.108Z,19.63
2017-01-02T04:15:19.703Z,19.63
2017-01-02T04:15:45.245Z,19.66
2017-01-02T04:16:10.823Z,19.73
2017-01-02T04:16:36.500Z,19.68
2017-01-02T04:17:02.055Z,19.69
2017-01-02T04:17:27.612Z,19.66
2017-01-02T04:17:53.204Z,19.69
2017-01-02T04:18:18.761Z,19.68
2017-01-02T04:18:44.314Z,19.69
2017-01-02T04:19:09.874Z,19.66
2017-01-02T04:19:35.423Z,19.76
2017-01-02T04:20:00.991Z,19.72
2017-01-02T04:20:26.658Z,19.73
2017-01-02T04:20:52.221Z,19.69
2017-01-02T04:21:17.794Z,19.79
2017-01-02T04:21:43.422Z,19.66
2017-01-02T04:22:09.064Z,19.8
2017-01-02T04:22:34.623Z,19.75
2017-01-02T04:23:00.245Z,19.75
2017-01-02T04:23:25.826Z,19.79
2017-01-02T04:23:51.399Z,19.84
2017-01-02T04:24:17.104Z,19.79
2017-01-02T04:24:42.657Z,19.78
2017-01-02T04:25:08.213Z,19.79
2017-01-02T04:25:33.779Z,19.79
2017-01-02T04:25:59.362Z,19.83
2017-01-02T04:26:24.915Z,19.76
2017-01-02T04:26:50.486Z,19.8
2017-01-02T04:27:16.046Z,19.83
2017-01-02T04:27:41.592Z,19.86
2017-01-02T04:28:07.168Z,19.79
2017-01-02T04:28:32.742Z,19.8
2017-01-02T04:28:58.299Z,19.8
2017-01-02T04:29:23.853Z,19.87
2017-01-02T04:29:49.413Z,19.83
2017-01-02T04:30:14.973Z,19.78
2017-01-02T04:30:40.539Z,19.83
2017-01-02T04:31:06.099Z,19.84
2017-01-02T04:31:31.672Z,19.83
2017-01-02T04:31:57.358Z,19.83
2017-01-02T04:32:22.921Z,19.84
2017-01-02T04:32:48.482Z,19.84
2017-01-02T04:33:14.049Z,19.9
2017-01-02T04:33:39.613Z,19.83
2017-01-02T04:34:05.172Z,19.88
2017-01-02T04:34:30.802Z,19.9
2017-01-02T04:34:56.384Z,19.91
2017-01-02T04:35:21.934Z,19.9
2017-01-02T04:35:47.496Z,19.88
2017-01-02T04:36:13.045Z,19.93
2017-01-02T04:36:38.608Z,19.86
2017-01-02T04:37:04.168Z,19.93
2017-01-02T04:37:29.747Z,19.86
2017-01-02T04:37:55.387Z,19.95
2017-01-02T04:38:20.942Z,19.88
2017-01-02T04:38:46.495Z,19.86
2017-01-02T04:39:12.111Z,19.87
2017-01-02T04:39:37.683Z,19.95
2017-01-02T04:40:03.236Z,19.95
2017-01-02T04:40:28.801Z,19.97
2017-01-02T04:40:54.357Z,19.94
2017-01-02T04:41:19.909Z,19.95
2017-01-02T04:41:45.538Z,19.91
2017-01-02T04:42:11.104Z,19.94
2017-01-02T04:42:36.659Z,19.98
2017-01-02T04:43:02.302Z,19.95
2017-01-02T04:43:27.875Z,19.94
2017-01-02T04:43:53.441Z,20
2017-01-02T04:44:19.025Z,19.95
2017-01-02T04:44:44.747Z,19.98
2017-01-02T04:45:10.283Z,19.98
2017-01-02T04:45:35.840Z,20.02
2017-01-02T04:46:01.403Z,19.95
2017-01-02T04:46:26.944Z,19.97
2017-01-02T04:46:52.584Z,19.95
2017-01-02T04:47:18.150Z,20
2017-01-02T04:47:43.718Z,20
2017-01-02T04:48:09.288Z,19.95
2017-01-02T04:48:34.951Z,19.94
2017-01-02T04:49:00.513Z,19.97
2017-01-02T04:49:26.099Z,19.94
2017-01-02T04:49:51.739Z,19.94
2017-01-02T04:50:17.291Z,19.94
2017-01-02T04:50:42.845Z,20.02
2017-01-02T04:51:08.392Z,19.9
2017-01-02T04:51:33.940Z,19.91
2017-01-02T04:51:59.509Z,19.95
2017-01-02T04:52:25.086Z,19.95
2017-01-02T04:52:50.665Z,19.95
2017-01-02T04:53:16.322Z,19.97
2017-01-02T04:53:41.889Z,19.91
2017-01-02T04:54:07.451Z,19.95
2017-01-02T04:54:33.009Z,19.97
2017-01-02T04:54:58.729Z,19.95
2017-01-02T04:55:24.307Z,20.06
2017-01-02T04:55:49.848Z,20.02
2017-01-02T04:56:15.511Z,20.06
2017-01-02T04:56:41.069Z,19.98
2017-01-02T04:57:06.618Z,20
2017-01-02T04:57:32.305Z,19.98
2017-01-02T04:57:57.861Z,20.06
2017-01-02T04:58:23.410Z,20.03
2017-01-02T04:58:49.010Z,20
2017-01-02T04:59:14.601Z,20.05
2017-01-02T04:59:40.180Z,19.98
2017-01-02T05:00:05.747Z,19.97
2017-01-02T05:00:31.324Z,19.98
2017-01-02T05:00:56.890Z,19.97
2017-01-02T05:01:22.469Z,20
2017-01-02T05:01:48.052Z,20.06
2017-01-02T05:02:13.606Z,20.05
2017-01-02T05:02:39.200Z,19.98
2017-01-02T05:03:04.887Z,20.06
2017-01-02T05:03:30.481Z,20.05
2017-01-02T05:03:56.034Z,20.05
2017-01-02T05:04:21.596Z,20.06
2017-01-02T05:04:47.167Z,20.03
2017-01-02T05:05:12.721Z,20.06
2017-01-02T05:05:38.272Z,20.03
2017-01-02T05:06:03.844Z,20.02
2017-01-02T05:06:29.401Z,20.06
2017-01-02T05:06:54.989Z,20.05
2017-01-02T05:07:20.554Z,20.06
2017-01-02T05:07:46.238Z,19.98
2017-01-02T05:08:11.834Z,20.02
2017-01-02T05:08:37.400Z,19.98
2017-01-02T05:09:02.979Z,19.97
2017-01-02T05:09:28.554Z,19.91
2017-01-02T05:09:54.106Z,19.97
2017-01-02T05:10:19.653Z,20.05
2017-01-02T05:10:45.210Z,20.03
2017-01-02T05:11:10.794Z,20.03
2017-01-02T05:11:36.354Z,20.03
2017-01-02T05:12:02.005Z,19.97
2017-01-02T05:12:27.573Z,20.05
2017-01-02T05:12:53.195Z,20.03
2017-01-02T05:13:18.828Z,20.02
2017-01-02T05:13:44.391Z,20.02
2017-01-02T05:14:10.064Z,20.06
2017-01-02T05:14:35.657Z,19.94
2017-01-02T05:15:01.221Z,19.97
2017-01-02T05:15:26.757Z,19.93
2017-01-02T05:15:52.399Z,20.02
2017-01-02T05:16:17.967Z,19.93
2017-01-02T05:16:43.524Z,19.94
2017-01-02T05:17:09.186Z,19.94
2017-01-02T05:17:34.832Z,19.98
2017-01-02T05:18:00.399Z,19.95
2017-01-02T05:18:25.967Z,19.97
2017-01-02T05:18:51.604Z,19.9
2017-01-02T05:19:17.170Z,20.03
2017-01-02T05:19:42.733Z,20.02
2017-01-02T05:20:08.288Z,19.98
2017-01-02T05:20:33.851Z,19.93
2017-01-02T05:20:59.392Z,19.97
2017-01-02T05:21:25.051Z,19.94
2017-01-02T05:21:50.623Z,19.91
2017-01-02T05:22:16.248Z,19.95
2017-01-02T05:22:41.837Z,19.98
2017-01-02T05:23:07.413Z,19.95
2017-01-02T05:23:33.061Z,19.94
2017-01-02T05:23:58.618Z,20
2017-01-02T05:24:24.191Z,19.95
2017-01-02T05:24:49.819Z,19.97
2017-01-02T05:25:15.429Z,20.03
2017-01-02T05:25:40.980Z,19.98
2017-01-02T05:26:06.562Z,20.03
2017-01-02T05:26:32.130Z,20.05
2017-01-02T05:26:57.693Z,19.95
2017-01-02T05:27:23.245Z,19.91
2017-01-02T05:27:48.927Z,20.02
2017-01-02T05:28:14.579Z,19.98
2017-01-02T05:28:40.149Z,20.03
2017-01-02T05:29:05.714Z,19.95
2017-01-02T05:29:31.356Z,20.02
2017-01-02T05:29:57.040Z,19.98
2017-01-02T05:30:22.602Z,20.06
2017-01-02T05:30:48.207Z,19.91
2017-01-02T05:31:13.849Z,20.03
2017-01-02T05:31:39.418Z,19.97
2017-01-02T05:32:05.090Z,20
2017-01-02T05:32:30.671Z,20.03
2017-01-02T05:32:56.227Z,20
2017-01-02T05:33:21.890Z,20.03